Terminal Aerodrome Forecast
Issued by NWS

Home | Current Version | Previous Version | Text Only | Print | Product List | Glossary On
Versions: 1 2 3 4 5 6 7 8 9 10 11 12 13 14 15
571
FTUS46 KHNX 290530
TAFFAT
TAF
KFAT 290530Z 2906/3006 VRB03KT P6SM SKC
     FM292200 30008KT P6SM SKC
      TEMPO 3002/3006 32011G17KT=

USA.gov is the U.S. government's official web portal to all federal, state and local government web resources and services.